To NAV CANADA Home Page Login to a new session Search on AWWS site Feedback and Comments Disclaimer Vers la page française équivalente Tips FAQ What's new on the site To the Forecasts and Observations / NOTAM section To "File a Flight Plan" website Publications and other links Update of the User's profile FIC Telephone Numbers My Weather Data Folder Route Weather Data Regional Weather Data Local Weather Data To the Forecasts and Observations / NOTAM section
Request Generated 05/29/2015 at 03:51:17 UTC . Weather information available at that time is displayed.

METAR/TAF

SCHEFFERVILLE/QC    (show WxCam)

METAR CYKL 290300Z AUTO 31010G18KT 9SM FEW037 M03/M08 A3017 RMK
SLP248=
METAR CYKL 290200Z AUTO 30010G15KT 9SM CLR M02/M07 A3016 RMK SLP242=
SPECI CYKL 290105Z AUTO 30011G17KT 9SM SCT030 M02/M05 A3015 RMK
SLP237=
METAR CYKL 290100Z AUTO 30010G19KT 9SM -SN FEW025 SCT030 M02/M05
A3014 RMK SLP236=

TAF CYKL 290138Z 2902/2914 30010G20KT P6SM BKN030 TEMPO 2902/2904 4SM
-SN BKN030
FM290400 30008KT P6SM FEW020 TEMPO 2904/2910 BKN020
RMK FCST BASED ON AUTO OBS. NXT FCST BY 290800Z=
Your time UTC time
Weather data provided by Environment Canada and NAV CANADA